Terminal Aerodrome Forecast
Issued by NWS St Louis, MO

Home | Current Version | Previous Version | Text Only | Print | Product List | Glossary On
Versions: 1 2 3 4 5 6 7 8 9 10 11 12 13 14 15 16 17 18 19 20 21 22 23 24 25 26 27 28 29
000
FTUS43 KLSX 161726
TAFSTL
TAF
KSTL 161726Z 1618/1724 VRB04KT P6SM FEW250
     FM170800 15007KT P6SM SCT200
     FM171500 15011G19KT P6SM VCSH OVC025
     FM171800 16014G23KT P6SM VCSH OVC015=

USA.gov is the U.S. government's official web portal to all federal, state and local government web resources and services.